Time,TemperatureF,DewpointF,PressureIn,WindDirection,WindDirectionDegrees,WindSpeedMPH,WindSpeedGustMPH,Humidity,HourlyPrecipIn,Conditions,Clouds,dailyrainin,SoftwareType,DateUTC
2013-02-22 00:01:00,11.0,9.0,30.01,WNW,295,0.0,3.0,92,0.00,,,0.00,,2013-02-22 07:01:00,
2013-02-22 00:11:00,11.0,9.0,30.01,WNW,295,0.0,3.0,92,0.00,,,0.00,,2013-02-22 07:11:00,
2013-02-22 00:21:00,14.0,11.0,30.00,WNW,297,3.0,7.0,89,0.00,,,0.00,,2013-02-22 07:21:00,
2013-02-22 00:31:00,15.0,12.0,30.01,WNW,300,0.0,2.0,88,0.00,,,0.00,,2013-02-22 07:31:00,
2013-02-22 00:42:00,15.0,12.0,30.01,WNW,300,0.0,2.0,88,0.00,,,0.00,,2013-02-22 07:42:00,
2013-02-22 00:51:00,12.0,9.0,30.01,ESE,115,1.0,5.0,86,0.00,,,0.00,,2013-02-22 07:51:00,
2013-02-22 01:01:00,11.0,8.0,30.01,SE,125,1.0,5.0,88,0.00,,,0.00,,2013-02-22 08:01:00,
2013-02-22 01:11:00,11.0,8.0,30.01,SE,125,1.0,5.0,88,0.00,,,0.00,,2013-02-22 08:11:00,
2013-02-22 01:21:00,12.0,10.0,30.02,NW,304,0.0,2.0,90,0.00,,,0.00,,2013-02-22 08:21:00,
2013-02-22 01:31:00,13.0,10.0,30.01,NNE,15,1.0,3.0,89,0.00,,,0.00,,2013-02-22 08:31:00,
2013-02-22 01:41:00,13.0,10.0,30.01,NNE,15,1.0,3.0,89,0.00,,,0.00,,2013-02-22 08:41:00,
2013-02-22 01:52:00,14.0,12.0,30.01,ENE,77,0.0,2.0,91,0.00,,,0.00,,2013-02-22 08:52:00,
2013-02-22 02:03:00,15.0,12.0,30.01,NNW,342,2.0,4.0,87,0.00,,,0.00,,2013-02-22 09:03:00,
2013-02-22 02:11:00,16.0,12.0,30.01,West,264,2.0,6.0,84,0.00,,,0.00,,2013-02-22 09:11:00,
2013-02-22 02:21:00,16.0,12.0,30.01,West,264,2.0,6.0,84,0.00,,,0.00,,2013-02-22 09:21:00,
2013-02-22 02:32:00,17.0,12.0,30.00,West,280,2.0,10.0,79,0.00,,,0.00,,2013-02-22 09:32:00,
2013-02-22 02:42:00,17.0,12.0,30.00,West,280,2.0,10.0,79,0.00,,,0.00,,2013-02-22 09:42:00,
2013-02-22 02:51:00,18.0,11.0,30.00,West,276,3.0,11.0,72,0.00,,,0.00,,2013-02-22 09:51:00,
2013-02-22 03:01:00,18.0,10.0,29.99,NNE,13,2.0,9.0,70,0.00,,,0.00,,2013-02-22 10:01:00,
2013-02-22 03:11:00,18.0,10.0,29.99,NNE,13,2.0,9.0,70,0.00,,,0.00,,2013-02-22 10:11:00,
2013-02-22 03:21:00,19.0,10.0,29.98,WNW,300,4.0,11.0,67,0.00,,,0.00,,2013-02-22 10:21:00,
2013-02-22 03:32:00,19.0,10.0,29.98,WNW,291,5.0,13.0,66,0.00,,,0.00,,2013-02-22 10:32:00,
2013-02-22 03:42:00,19.0,10.0,29.98,WNW,291,5.0,13.0,66,0.00,,,0.00,,2013-02-22 10:42:00,
2013-02-22 03:51:00,19.0,9.0,29.98,WNW,300,3.0,10.0,65,0.00,,,0.00,,2013-02-22 10:51:00,
2013-02-22 04:01:00,19.0,9.0,29.98,WNW,302,6.0,21.0,63,0.00,,,0.00,,2013-02-22 11:01:00,
2013-02-22 04:11:00,19.0,9.0,29.98,WNW,302,6.0,21.0,63,0.00,,,0.00,,2013-02-22 11:11:00,
2013-02-22 04:21:00,19.0,9.0,29.98,WNW,302,6.0,21.0,63,0.00,,,0.00,,2013-02-22 11:21:00,
2013-02-22 04:32:00,19.0,8.0,29.98,WNW,284,4.0,13.0,62,0.00,,,0.00,,2013-02-22 11:32:00,
2013-02-22 04:42:00,19.0,8.0,29.98,WNW,284,4.0,13.0,62,0.00,,,0.00,,2013-02-22 11:42:00,
2013-02-22 04:52:00,19.0,7.0,29.98,WNW,283,3.0,14.0,60,0.00,,,0.00,,2013-02-22 11:52:00,
2013-02-22 05:02:00,19.0,9.0,29.98,NE,34,3.0,13.0,63,0.00,,,0.00,,2013-02-22 12:02:00,
2013-02-22 05:11:00,19.0,9.0,29.98,NE,34,3.0,13.0,63,0.00,,,0.00,,2013-02-22 12:11:00,
2013-02-22 05:22:00,19.0,8.0,29.99,ENE,72,2.0,7.0,62,0.00,,,0.00,,2013-02-22 12:22:00,
2013-02-22 05:32:00,19.0,7.0,30.00,NW,304,2.0,15.0,60,0.00,,,0.00,,2013-02-22 12:32:00,
2013-02-22 05:42:00,19.0,7.0,30.00,NW,304,2.0,15.0,60,0.00,,,0.00,,2013-02-22 12:42:00,
2013-02-22 05:52:00,19.0,7.0,29.99,ESE,122,2.0,11.0,58,0.00,,,0.00,,2013-02-22 12:52:00,
2013-02-22 06:02:00,18.0,6.0,30.00,WNW,290,2.0,10.0,60,0.00,,,0.00,,2013-02-22 13:02:00,
2013-02-22 06:11:00,18.0,6.0,30.00,WNW,290,2.0,10.0,60,0.00,,,0.00,,2013-02-22 13:11:00,
2013-02-22 06:22:00,19.0,6.0,30.00,WNW,300,3.0,10.0,57,0.00,,,0.00,,2013-02-22 13:22:00,
2013-02-22 06:32:00,18.0,6.0,30.01,NW,309,4.0,14.0,58,0.00,,,0.00,,2013-02-22 13:32:00,
2013-02-22 06:42:00,18.0,6.0,30.01,NW,309,4.0,14.0,58,0.00,,,0.00,,2013-02-22 13:42:00,
2013-02-22 06:52:00,18.0,6.0,30.00,WNW,300,1.0,6.0,59,0.00,,,0.00,,2013-02-22 13:52:00,
2013-02-22 07:01:00,18.0,6.0,30.01,ESE,119,2.0,5.0,59,0.00,,,0.00,,2013-02-22 14:01:00,
2013-02-22 07:11:00,18.0,6.0,30.01,West,281,6.0,14.0,58,0.00,,,0.00,,2013-02-22 14:11:00,
2013-02-22 07:21:00,18.0,6.0,30.01,West,281,6.0,14.0,58,0.00,,,0.00,,2013-02-22 14:21:00,
2013-02-22 07:32:00,19.0,6.0,30.02,West,276,4.0,17.0,56,0.00,,,0.00,,2013-02-22 14:32:00,
2013-02-22 07:42:00,19.0,6.0,30.02,West,276,4.0,17.0,56,0.00,,,0.00,,2013-02-22 14:42:00,
2013-02-22 07:52:00,19.0,6.0,30.03,West,277,3.0,16.0,57,0.00,,,0.00,,2013-02-22 14:52:00,
2013-02-22 08:01:00,19.0,6.0,30.03,NW,305,2.0,14.0,56,0.00,,,0.00,,2013-02-22 15:01:00,
2013-02-22 08:11:00,19.0,6.0,30.03,NW,305,2.0,14.0,56,0.00,,,0.00,,2013-02-22 15:11:00,
2013-02-22 08:21:00,19.0,10.0,30.04,ESE,120,2.0,4.0,66,0.00,,,0.00,,2013-02-22 15:21:00,
2013-02-22 08:32:00,20.0,10.0,30.05,NE,34,0.0,6.0,65,0.00,,,0.00,,2013-02-22 15:32:00,
2013-02-22 08:41:00,20.0,10.0,30.05,NE,34,0.0,6.0,65,0.00,,,0.00,,2013-02-22 15:41:00,
2013-02-22 08:52:00,20.0,10.0,30.05,SSE,149,3.0,5.0,65,0.00,,,0.00,,2013-02-22 15:52:00,
2013-02-22 09:01:00,20.0,11.0,30.05,SE,134,2.0,4.0,68,0.00,,,0.00,,2013-02-22 16:01:00,
2013-02-22 09:12:00,20.0,11.0,30.05,SE,134,2.0,4.0,68,0.00,,,0.00,,2013-02-22 16:12:00,
2013-02-22 09:21:00,21.0,12.0,30.05,SE,145,3.0,8.0,68,0.00,,,0.00,,2013-02-22 16:21:00,
2013-02-22 09:32:00,20.0,12.0,30.05,SE,134,4.0,11.0,71,0.00,,,0.00,,2013-02-22 16:32:00,
2013-02-22 09:42:00,20.0,12.0,30.05,SE,134,4.0,11.0,71,0.00,,,0.00,,2013-02-22 16:42:00,
2013-02-22 09:52:00,20.0,12.0,30.05,East,91,4.0,9.0,71,0.00,,,0.00,,2013-02-22 16:52:00,
2013-02-22 10:01:00,20.0,12.0,30.05,East,79,4.0,9.0,72,0.00,,,0.00,,2013-02-22 17:01:00,
2013-02-22 10:11:00,20.0,12.0,30.05,East,79,4.0,9.0,72,0.00,,,0.00,,2013-02-22 17:11:00,
2013-02-22 10:21:00,20.0,13.0,30.05,SE,134,5.0,10.0,74,0.00,,,0.00,,2013-02-22 17:21:00,
2013-02-22 10:32:00,20.0,13.0,30.04,SSE,155,5.0,13.0,75,0.00,,,0.00,,2013-02-22 17:32:00,
2013-02-22 10:42:00,20.0,13.0,30.04,SSE,155,5.0,13.0,75,0.00,,,0.00,,2013-02-22 17:42:00,
2013-02-22 10:52:00,20.0,14.0,30.05,SW,215,6.0,13.0,76,0.00,,,0.00,,2013-02-22 17:52:00,
2013-02-22 11:01:00,21.0,14.0,30.04,SSE,154,4.0,11.0,74,0.00,,,0.00,,2013-02-22 18:01:00,
2013-02-22 11:12:00,21.0,14.0,30.04,SSE,154,4.0,11.0,74,0.00,,,0.00,,2013-02-22 18:12:00,
2013-02-22 11:22:00,22.0,14.0,30.05,SE,136,3.0,12.0,70,0.00,,,0.00,,2013-02-22 18:22:00,
2013-02-22 11:32:00,22.0,13.0,30.05,SSE,150,5.0,10.0,68,0.00,,,0.00,,2013-02-22 18:32:00,
2013-02-22 11:42:00,22.0,13.0,30.05,SSE,150,5.0,10.0,68,0.00,,,0.00,,2013-02-22 18:42:00,
2013-02-22 11:51:00,23.0,13.0,30.05,SSE,148,4.0,11.0,66,0.00,,,0.00,,2013-02-22 18:51:00,
2013-02-22 12:01:00,24.0,15.0,30.05,ENE,71,2.0,9.0,69,0.00,,,0.00,,2013-02-22 19:01:00,
2013-02-22 12:11:00,23.0,14.0,30.05,SSE,157,4.0,15.0,67,0.00,,,0.00,,2013-02-22 19:11:00,
2013-02-22 12:21:00,23.0,14.0,30.05,SSE,157,4.0,15.0,67,0.00,,,0.00,,2013-02-22 19:21:00,
2013-02-22 12:31:00,21.0,13.0,30.05,ESE,115,4.0,12.0,70,0.00,,,0.00,,2013-02-22 19:31:00,
2013-02-22 12:41:00,21.0,13.0,30.05,ESE,115,4.0,12.0,70,0.00,,,0.00,,2013-02-22 19:41:00,
2013-02-22 12:52:00,21.0,13.0,30.04,SSE,160,5.0,11.0,70,0.00,,,0.00,,2013-02-22 19:52:00,
2013-02-22 13:01:00,19.0,12.0,30.04,SE,135,4.0,12.0,75,0.00,,,0.00,,2013-02-22 20:01:00,
2013-02-22 13:11:00,19.0,12.0,30.04,SE,135,4.0,12.0,75,0.00,,,0.00,,2013-02-22 20:11:00,
2013-02-22 13:21:00,19.0,13.0,30.04,ENE,64,3.0,11.0,76,0.00,,,0.00,,2013-02-22 20:21:00,
2013-02-22 13:32:00,19.0,13.0,30.03,SE,135,3.0,11.0,77,0.00,,,0.00,,2013-02-22 20:32:00,
2013-02-22 13:41:00,19.0,13.0,30.03,SE,135,3.0,11.0,77,0.00,,,0.00,,2013-02-22 20:41:00,
2013-02-22 13:52:00,20.0,14.0,30.03,NE,55,3.0,10.0,76,0.00,,,0.00,,2013-02-22 20:52:00,
2013-02-22 14:01:00,21.0,14.0,30.03,ESE,122,1.0,8.0,75,0.00,,,0.00,,2013-02-22 21:01:00,
2013-02-22 14:11:00,21.0,14.0,30.03,ESE,122,1.0,8.0,75,0.00,,,0.00,,2013-02-22 21:11:00,
2013-02-22 14:21:00,20.0,13.0,30.03,NE,55,2.0,8.0,74,0.00,,,0.00,,2013-02-22 21:21:00,
2013-02-22 14:32:00,20.0,13.0,30.03,ESE,120,2.0,6.0,75,0.00,,,0.00,,2013-02-22 21:32:00,
2013-02-22 14:42:00,20.0,13.0,30.03,ESE,120,2.0,6.0,75,0.00,,,0.00,,2013-02-22 21:42:00,
2013-02-22 14:52:00,22.0,15.0,30.02,ESE,106,2.0,8.0,75,0.00,,,0.00,,2013-02-22 21:52:00,
2013-02-22 15:01:00,24.0,16.0,30.01,South,169,2.0,8.0,72,0.00,,,0.00,,2013-02-22 22:01:00,
2013-02-22 15:11:00,24.0,16.0,30.01,South,169,2.0,8.0,72,0.00,,,0.00,,2013-02-22 22:11:00,
2013-02-22 15:21:00,24.0,16.0,30.01,SE,134,3.0,12.0,70,0.00,,,0.00,,2013-02-22 22:21:00,
2013-02-22 15:31:00,24.0,16.0,30.01,West,260,4.0,13.0,71,0.00,,,0.00,,2013-02-22 22:31:00,
2013-02-22 15:41:00,24.0,16.0,30.01,West,260,4.0,13.0,71,0.00,,,0.00,,2013-02-22 22:41:00,
2013-02-22 15:51:00,24.0,8.0,30.01,West,281,9.0,19.0,49,0.00,,,0.00,,2013-02-22 22:51:00,
2013-02-22 16:01:00,25.0,5.0,30.01,WNW,293,14.0,25.0,42,0.00,,,0.00,,2013-02-22 23:01:00,
2013-02-22 16:21:00,24.0,4.0,30.01,West,278,11.0,26.0,42,0.00,,,0.00,,2013-02-22 23:21:00,
2013-02-22 16:31:00,24.0,4.0,30.01,WNW,290,12.0,21.0,42,0.00,,,0.00,,2013-02-22 23:31:00,
2013-02-22 16:52:00,24.0,5.0,30.02,WNW,293,10.0,24.0,43,0.00,,,0.00,,2013-02-22 23:52:00,
2013-02-22 17:01:00,23.0,4.0,30.02,West,273,12.0,22.0,43,0.00,,,0.00,,2013-02-23 00:01:00,
2013-02-22 17:21:00,22.0,5.0,30.02,WNW,295,8.0,21.0,47,0.00,,,0.00,,2013-02-23 00:21:00,
2013-02-22 17:32:00,22.0,5.0,30.02,WNW,295,8.0,21.0,47,0.00,,,0.00,,2013-02-23 00:32:00,
2013-02-22 17:42:00,22.0,5.0,30.02,WNW,295,8.0,21.0,47,0.00,,,0.00,,2013-02-23 00:42:00,
2013-02-22 17:51:00,20.0,4.0,30.02,NNW,340,6.0,21.0,50,0.00,,,0.00,,2013-02-23 00:51:00,
2013-02-22 18:01:00,19.0,4.0,30.02,NW,309,5.0,11.0,51,0.00,,,0.00,,2013-02-23 01:01:00,
2013-02-22 18:11:00,19.0,4.0,30.02,NW,309,5.0,11.0,51,0.00,,,0.00,,2013-02-23 01:11:00,
2013-02-22 18:21:00,19.0,3.0,30.03,WNW,285,7.0,18.0,49,0.00,,,0.00,,2013-02-23 01:21:00,
2013-02-22 18:31:00,18.0,3.0,30.03,WNW,289,2.0,5.0,51,0.00,,,0.00,,2013-02-23 01:31:00,
2013-02-22 18:42:00,18.0,3.0,30.03,WNW,289,2.0,5.0,51,0.00,,,0.00,,2013-02-23 01:42:00,
2013-02-22 18:51:00,18.0,3.0,30.03,NNW,329,4.0,16.0,50,0.00,,,0.00,,2013-02-23 01:51:00,
2013-02-22 19:01:00,18.0,2.0,30.04,WSW,251,4.0,17.0,49,0.00,,,0.00,,2013-02-23 02:01:00,
2013-02-22 19:11:00,18.0,2.0,30.03,WNW,287,13.0,23.0,49,0.00,,,0.00,,2013-02-23 02:11:00,
2013-02-22 19:21:00,18.0,2.0,30.03,WNW,287,13.0,23.0,49,0.00,,,0.00,,2013-02-23 02:21:00,
2013-02-22 19:32:00,18.0,2.0,30.04,WNW,293,15.0,31.0,48,0.00,,,0.00,,2013-02-23 02:32:00,
2013-02-22 19:42:00,18.0,2.0,30.04,WNW,293,15.0,31.0,48,0.00,,,0.00,,2013-02-23 02:42:00,
2013-02-22 19:52:00,18.0,2.0,30.04,WNW,293,16.0,30.0,49,0.00,,,0.00,,2013-02-23 02:52:00,
2013-02-22 20:01:00,17.0,2.0,30.03,NW,306,7.0,19.0,50,0.00,,,0.00,,2013-02-23 03:01:00,
2013-02-22 20:11:00,17.0,2.0,30.03,NW,306,7.0,19.0,50,0.00,,,0.00,,2013-02-23 03:11:00,
2013-02-22 20:21:00,17.0,1.0,30.02,WNW,302,17.0,33.0,48,0.00,,,0.00,,2013-02-23 03:21:00,
2013-02-22 20:32:00,17.0,2.0,30.02,WNW,290,12.0,24.0,50,0.00,,,0.00,,2013-02-23 03:32:00,
2013-02-22 20:41:00,17.0,2.0,30.02,WNW,290,12.0,24.0,50,0.00,,,0.00,,2013-02-23 03:41:00,
2013-02-22 20:51:00,17.0,1.0,30.01,West,280,16.0,30.0,48,0.00,,,0.00,,2013-02-23 03:51:00,
2013-02-22 21:01:00,17.0,0.0,30.01,West,278,14.0,39.0,47,0.00,,,0.00,,2013-02-23 04:01:00,
2013-02-22 21:11:00,18.0,1.0,30.01,WNW,285,15.0,33.0,46,0.00,,,0.00,,2013-02-23 04:11:00,
2013-02-22 21:21:00,18.0,1.0,30.01,WNW,285,15.0,33.0,46,0.00,,,0.00,,2013-02-23 04:21:00,
2013-02-22 21:31:00,18.0,0.0,30.01,WNW,285,17.0,35.0,45,0.00,,,0.00,,2013-02-23 04:31:00,
2013-02-22 21:41:00,18.0,0.0,30.01,WNW,285,17.0,35.0,45,0.00,,,0.00,,2013-02-23 04:41:00,
2013-02-22 21:51:00,17.0,0.0,30.00,NW,309,18.0,41.0,47,0.00,,,0.00,,2013-02-23 04:51:00,
2013-02-22 22:02:00,17.0,0.0,30.00,NW,309,18.0,41.0,47,0.00,,,0.00,,2013-02-23 05:02:00,
2013-02-22 22:12:00,17.0,0.0,30.00,NW,309,18.0,41.0,47,0.00,,,0.00,,2013-02-23 05:12:00,
2013-02-22 22:22:00,17.0,0.0,30.00,NW,305,10.0,25.0,47,0.00,,,0.00,,2013-02-23 05:22:00,
2013-02-22 22:32:00,17.0,1.0,30.01,West,262,17.0,35.0,48,0.00,,,0.00,,2013-02-23 05:32:00,
2013-02-22 22:42:00,17.0,1.0,30.01,West,262,17.0,35.0,48,0.00,,,0.00,,2013-02-23 05:42:00,
2013-02-22 22:52:00,17.0,2.0,30.00,WNW,296,9.0,33.0,50,0.00,,,0.00,,2013-02-23 05:52:00,
2013-02-22 23:01:00,17.0,1.0,29.99,WNW,293,22.0,44.0,48,0.00,,,0.00,,2013-02-23 06:01:00,
2013-02-22 23:11:00,17.0,1.0,29.99,WNW,293,22.0,44.0,48,0.00,,,0.00,,2013-02-23 06:11:00,
2013-02-22 23:22:00,17.0,1.0,29.96,WNW,291,24.0,44.0,48,0.00,,,0.00,,2013-02-23 06:22:00,
2013-02-22 23:31:00,17.0,1.0,29.95,WNW,302,24.0,60.0,49,0.00,,,0.00,,2013-02-23 06:31:00,
2013-02-22 23:41:00,17.0,1.0,29.95,WNW,302,24.0,60.0,49,0.00,,,0.00,,2013-02-23 06:41:00,
2013-02-22 23:51:00,17.0,1.0,29.95,West,280,25.0,44.0,49,0.00,,,0.00,,2013-02-23 06:51:00,